SBRBSPLO

Guest
Details From SBRB - Presidente Medici
To SPLO - ILO
Flight Number -
Tags generated
Created
Modified
Stats Distance 531 nm / 983 km
Max Altitude 34,000 ft / 10,363 m
Waypoints 7
Social Downloads 0
Likes 0
Share VATSIM

Download

Looking for another format? Having issues loading an existing format? Contact us
Advertisement - Login to hide

Notes

Basic altitude profile: - Ascent Rate: 2500ft/min - Ascent Speed: 250kts - Cruise Altitude: 35000ft - Cruise Speed: 420kts - Descent Rate: 1500ft/min - Descent Speed: 250kts Options: - Use NATs: yes - Use PACOTS: yes - Use low airways: yes - Use high airways: yes

Route

SBRB CIJ PDO UV14 JUL V14 TONOS OLGAS SPLO

ID Type Via Altitude Latitude Longitude Leg Dist Tot Dist Heading (true) Name
O SBRB APT - 0 ft / 0 m -9.86916˚ -67.89407˚ - 0 nm - Presidente Medici
CIJ NDB - 30,300 ft / 9,235 m -11.04121˚ -68.78163˚ 87 nm 87 nm 217° / 217° COBIJA NDB
PDO VOR - 34,000 ft / 10,363 m -12.60833˚ -69.22722˚ 97 nm 185 nm 196° / 196° PUERTO MALDONADO VOR-DME
JUL VOR UV14 (AWY-HI) 34,000 ft / 10,363 m -15.46806˚ -70.15111˚ 179 nm 365 nm 197° / 198° JULIACA VOR-DME
TONOS FIX V14 (AWY-LO) 24,000 ft / 7,315 m -15.92444˚ -70.90583˚ 51 nm 416 nm 238° / 238° -
OLGAS FIX - 17,200 ft / 5,243 m -16.38556˚ -70.77111˚ 28 nm 445 nm 164° / 164° -
O SPLO APT - 0 ft / 0 m -17.69504˚ -71.34396˚ 85 nm 530 nm 203° / 203° ILO

Altitude Profile

Advertisement - Login to hide

Weather


0- 5 10 15 20 25 30 35+ Temperature / ° C

Clouds and Precipitation
Forecast for 2018-05-27 00:00 UTC. Updated 4 hours ago

Ground ~20,000 ft ~40,000 ft Winds

SBRB

Details ICAO SBRB (RBR)
Name Presidente Medici
Region Brazil
Timezone America/Rio_Branco (UTC-5.0)
Stats Elevation 634 ft / 193 m (AMSL)
Location -9.869157° -67.894072°
Runways 1
Magnetic Variation 9.762° W

METAR

SBRB 270300Z 00000KT CAVOK 22/20 Q1013

Decode

TAF

TAF SBRB 262200Z 2700/2724 18002KT CAVOK TN20/2710Z TX30/2718Z BECMG 2711/2713 15010KT BECMG 2715/2717 18005KT 9999 SCT035 BECMG 2721/2723 CAVOK RMK PDY

Decode

Departure Runways

ID Width Length Bearing (true) Bearing (mag) Surface Threshold Offset Overrun Length
06 148 ft / 45 m 7,115 ft / 2,169 m 57.02° 66.78° Asphalt 0 ft / 0 m 120 ft / 37 m
24 148 ft / 45 m 7,115 ft / 2,169 m 237.01° 246.77° Asphalt 0 ft / 0 m 180 ft / 55 m

SPLO

Details ICAO SPLO
Name ILO
Region Peru
Timezone America/Lima (UTC-5.0)
Stats Elevation 72 ft / 22 m (AMSL)
Location -17.695035° -71.343964°
Runways 1
Magnetic Variation 4.910° W

METAR

Not found

TAF

SPLO 261650Z 2618/2718 VRB07KT 9999 BKN030 TX22/2619Z TN16/2710Z

Decode

Destination Runways

ID Width Length Bearing (true) Bearing (mag) Surface Threshold Offset Overrun Length
12 148 ft / 45 m 8,244 ft / 2,513 m 114.89° 119.80° Asphalt 0 ft / 0 m 490 ft / 149 m
30 148 ft / 45 m 8,244 ft / 2,513 m 294.89° 299.80° Asphalt 0 ft / 0 m 530 ft / 162 m